createdAt,value
2023-05-09T05:43:38.004Z,100782.94
2023-05-09T05:46:23.593Z,100791.97
2023-05-09T05:49:09.143Z,100788.25
2023-05-09T05:51:54.356Z,100782.66
2023-05-09T05:54:39.738Z,100769.03
2023-05-09T05:57:27.257Z,100769.34
2023-05-09T06:00:14.736Z,100781.19
2023-05-09T06:03:00.479Z,100780.22
2023-05-09T06:05:47.611Z,100780.53
2023-05-09T06:08:33.009Z,100765.41
2023-05-09T06:11:19.068Z,100781.53
2023-05-09T06:14:04.697Z,100775.50
2023-05-09T06:16:50.119Z,100770.97
2023-05-09T06:19:35.686Z,100775.53
2023-05-09T06:22:20.844Z,100775.53
2023-05-09T06:25:08.704Z,100767.59
2023-05-09T06:28:02.020Z,100769.28
2023-05-09T06:30:47.690Z,100769.03
2023-05-09T06:33:33.054Z,100774.34
2023-05-09T06:36:18.522Z,100765.44
2023-05-09T06:39:04.270Z,100755.94
2023-05-09T06:41:49.246Z,100767.81
2023-05-09T06:44:34.878Z,100762.00
2023-05-09T06:47:20.308Z,100748.91
2023-05-09T06:50:06.525Z,100753.91
2023-05-09T06:52:51.510Z,100749.37
2023-05-09T06:55:36.946Z,100752.22
2023-05-09T06:58:22.891Z,100744.12
2023-05-09T07:01:08.326Z,100735.72
2023-05-09T07:03:53.809Z,100741.09
2023-05-09T07:06:40.277Z,100735.97
2023-05-09T07:09:28.532Z,100737.28
2023-05-09T07:12:13.934Z,100736.97
2023-05-09T07:14:59.536Z,100732.97
2023-05-09T07:17:44.728Z,100733.13
2023-05-09T07:20:30.008Z,100725.31
2023-05-09T07:23:15.516Z,100718.00
2023-05-09T07:26:01.609Z,100717.50
2023-05-09T07:28:47.385Z,100720.47
2023-05-09T07:31:35.343Z,100718.22
2023-05-09T07:34:25.610Z,100706.19
2023-05-09T07:37:12.932Z,100715.50
2023-05-09T07:40:00.728Z,100717.78
2023-05-09T07:42:49.909Z,100712.56
2023-05-09T07:45:35.460Z,100711.47
2023-05-09T07:48:20.830Z,100708.84
2023-05-09T07:51:06.247Z,100687.56
2023-05-09T07:53:51.592Z,100700.47
2023-05-09T07:56:37.131Z,100714.97
2023-05-09T07:59:22.369Z,100711.53
2023-05-09T08:02:08.508Z,100703.84
2023-05-09T08:04:53.930Z,100697.78
2023-05-09T08:07:39.944Z,100700.69
2023-05-09T08:10:26.840Z,100695.34
2023-05-09T08:13:12.600Z,100683.97
2023-05-09T08:15:57.806Z,100683.28
2023-05-09T08:18:43.422Z,100683.31
2023-05-09T08:21:28.616Z,100693.56
2023-05-09T08:24:14.460Z,100693.47
2023-05-09T08:27:00.673Z,100691.84
2023-05-09T08:29:45.934Z,100687.94
2023-05-09T08:32:31.172Z,100679.25
2023-05-09T08:35:18.368Z,100686.19
2023-05-09T08:38:03.771Z,100675.41
2023-05-09T08:40:48.906Z,100659.59
2023-05-09T08:43:35.267Z,100673.12
2023-05-09T08:46:30.791Z,100651.72
2023-05-09T08:49:16.404Z,100675.34
2023-05-09T08:52:02.637Z,100680.31
2023-05-09T08:54:48.269Z,100670.94
2023-05-09T08:57:37.990Z,100667.00
2023-05-09T09:00:23.734Z,100668.50
2023-05-09T09:03:11.099Z,100668.53
2023-05-09T09:05:56.773Z,100664.19
2023-05-09T09:08:42.615Z,100665.22
2023-05-09T09:11:30.784Z,100654.56
2023-05-09T09:14:22.278Z,100656.78
2023-05-09T09:17:09.104Z,100658.59
2023-05-09T09:20:00.328Z,100659.69
2023-05-09T09:22:48.242Z,100647.00
2023-05-09T09:25:37.063Z,100661.69
2023-05-09T09:28:22.716Z,100652.38
2023-05-09T09:31:25.311Z,100642.97
2023-05-09T09:34:10.705Z,100640.16
2023-05-09T09:36:56.074Z,100640.28
2023-05-09T09:39:53.886Z,100637.75
2023-05-09T09:42:43.607Z,100635.09
2023-05-09T09:45:28.867Z,100633.91
2023-05-09T09:48:14.372Z,100637.31
2023-05-09T09:51:10.884Z,100626.69
2023-05-09T09:53:56.577Z,100628.69
2023-05-09T09:56:46.634Z,100624.59
2023-05-09T09:59:32.230Z,100611.28
2023-05-09T10:02:23.734Z,100622.94
2023-05-09T10:05:09.432Z,100625.00
2023-05-09T10:07:58.753Z,100617.53
2023-05-09T10:10:44.846Z,100569.53
2023-05-09T10:13:30.741Z,100610.00
2023-05-09T10:16:16.370Z,100615.09
2023-05-09T10:19:02.117Z,100610.28
2023-05-09T10:21:50.856Z,100618.03
2023-05-09T10:24:42.460Z,100618.12
2023-05-09T10:27:29.665Z,100621.41
2023-05-09T10:30:18.492Z,100626.34
2023-05-09T10:33:11.570Z,100621.38
2023-05-09T10:35:58.823Z,100611.06
2023-05-09T10:38:45.164Z,100606.31
2023-05-09T10:41:31.493Z,100606.53
2023-05-09T10:44:17.525Z,100598.44
2023-05-09T10:47:04.069Z,100596.94
2023-05-09T10:49:50.276Z,100603.72
2023-05-09T10:53:08.997Z,100611.59
2023-05-09T10:56:12.692Z,100606.44
2023-05-09T10:59:07.236Z,100609.06
2023-05-09T11:02:05.345Z,100581.28
2023-05-09T11:05:17.495Z,100592.44
2023-05-09T11:08:30.975Z,100571.63
2023-05-09T11:11:31.777Z,100582.97
2023-05-09T11:14:42.472Z,100589.81
2023-05-09T11:17:30.417Z,100585.69
2023-05-09T11:20:15.840Z,100590.94
2023-05-09T11:23:02.604Z,100578.12
2023-05-09T11:26:10.973Z,100579.94
2023-05-09T11:29:06.083Z,100577.25
2023-05-09T11:32:16.274Z,100576.03
2023-05-09T11:35:16.402Z,100569.00
2023-05-09T11:38:06.537Z,100578.12
2023-05-09T11:40:59.335Z,100566.78
2023-05-09T11:43:45.241Z,100568.97
2023-05-09T11:46:33.431Z,100558.09
2023-05-09T11:49:20.592Z,100556.25
2023-05-09T11:52:06.231Z,100566.41
2023-05-09T11:54:52.736Z,100558.72
2023-05-09T11:57:47.810Z,100546.81
2023-05-09T12:00:33.459Z,100545.31
2023-05-09T12:03:19.166Z,100550.88
2023-05-09T12:06:04.815Z,100547.28
2023-05-09T12:08:50.679Z,100540.81
2023-05-09T12:11:37.284Z,100543.13
2023-05-09T12:14:31.353Z,100542.94
2023-05-09T12:17:16.642Z,100539.50
2023-05-09T12:20:04.467Z,100529.28
2023-05-09T12:22:53.387Z,100532.81
2023-05-09T12:25:38.873Z,100520.38
2023-05-09T12:28:25.451Z,100522.19
2023-05-09T12:31:11.760Z,100510.63
2023-05-09T12:33:57.553Z,100515.03
2023-05-09T12:36:51.746Z,100510.81
2023-05-09T12:39:37.292Z,100506.56
2023-05-09T12:42:22.394Z,100495.22
2023-05-09T12:45:08.968Z,100495.22
2023-05-09T12:47:54.481Z,100492.53
2023-05-09T12:50:40.532Z,100480.34
2023-05-09T12:53:27.115Z,100484.22
2023-05-09T12:56:17.969Z,100487.22
2023-05-09T12:59:03.672Z,100482.31
2023-05-09T13:01:59.755Z,100484.28
2023-05-09T13:04:45.058Z,100471.84
2023-05-09T13:07:39.152Z,100472.22
